Time;durP1;ratioP1;P1;durP2;ratioP2;P2;SDS_P1;SDS_P2;PMS_P1;PMS_P2;Temp;Humidity;BMP_temperature;BMP_pressure;BME280_temperature;BME280_humidity;BME280_pressure;Samples;Min_cycle;Max_cycle;Signal;HPM_P1;HPM_P2
2022/05/11 00:01:41;;;;;;;5.37;2.40;;;16.00;99.90;;;;;;5133907;27;20231;-62
2022/05/11 00:04:09;;;;;;;3.87;1.90;;;16.00;99.90;;;;;;5133952;27;20617;-61
2022/05/11 00:06:37;;;;;;;3.90;2.03;;;16.00;99.90;;;;;;5133899;27;20219;-61
2022/05/11 00:09:05;;;;;;;5.40;2.40;;;16.10;99.90;;;;;;5133793;27;20210;-62
2022/05/11 00:11:32;;;;;;;3.93;2.57;;;16.00;99.90;;;;;;5133803;27;20284;-62
2022/05/11 00:13:59;;;;;;;5.87;2.10;;;16.10;99.90;;;;;;5133817;27;20203;-62
2022/05/11 00:16:28;;;;;;;9.10;2.70;;;16.20;99.90;;;;;;5133851;27;20255;-61
2022/05/11 00:18:55;;;;;;;4.67;2.40;;;16.20;99.90;;;;;;5133629;27;20559;-62
2022/05/11 00:21:22;;;;;;;6.40;2.17;;;16.20;99.90;;;;;;5134041;27;20227;-62
2022/05/11 00:23:49;;;;;;;4.13;2.30;;;16.30;99.90;;;;;;5133623;27;20206;-62
2022/05/11 00:26:16;;;;;;;7.23;2.43;;;16.20;99.90;;;;;;5133377;27;20275;-61
2022/05/11 00:28:43;;;;;;;3.53;2.57;;;16.30;99.90;;;;;;5133521;27;20293;-62
2022/05/11 00:31:10;;;;;;;5.50;2.30;;;16.20;99.90;;;;;;5133912;27;20287;-61
2022/05/11 00:33:38;;;;;;;2.73;2.37;;;16.10;99.90;;;;;;5133874;27;20234;-61
2022/05/11 00:36:10;;;;;;;3.47;2.50;;;16.00;99.90;;;;;;5133234;27;20289;-61
2022/05/11 00:38:36;;;;;;;3.30;2.40;;;15.90;99.90;;;;;;5133521;27;20290;-62
2022/05/11 00:41:03;;;;;;;3.50;2.10;;;15.90;99.90;;;;;;5132905;27;20238;-62
2022/05/11 00:43:33;;;;;;;2.77;2.23;;;15.90;99.90;;;;;;5133537;27;20213;-62
2022/05/11 00:46:11;;;;;;;5.50;2.47;;;15.90;99.90;;;;;;5133071;27;20214;-62
2022/05/11 00:51:28;;;;;;;4.60;2.33;;;15.80;99.90;;;;;;5133032;27;20311;-61
2022/05/11 00:53:55;;;;;;;3.97;2.50;;;15.80;99.90;;;;;;5133312;27;20206;-61
2022/05/11 00:56:24;;;;;;;6.07;2.77;;;15.90;99.90;;;;;;5132883;27;20199;-62
2022/05/11 00:58:54;;;;;;;5.73;2.67;;;15.90;99.90;;;;;;5133174;27;20207;-62
2022/05/11 01:01:20;;;;;;;3.73;2.50;;;15.80;99.90;;;;;;5132807;27;20284;-62
2022/05/11 01:03:52;;;;;;;3.77;2.60;;;15.80;99.90;;;;;;5133623;27;20207;-61
2022/05/11 01:06:21;;;;;;;3.60;2.80;;;15.80;99.90;;;;;;5132745;27;20222;-60
2022/05/11 01:08:48;;;;;;;4.47;2.43;;;15.70;99.90;;;;;;5133175;27;20207;-61
2022/05/11 01:11:15;;;;;;;4.90;2.63;;;15.70;99.90;;;;;;5132849;27;20238;-61
2022/05/11 01:13:45;;;;;;;3.37;2.60;;;15.80;99.90;;;;;;5131627;27;20211;-61
2022/05/11 01:16:11;;;;;;;6.47;2.50;;;15.80;99.90;;;;;;5132713;27;20262;-61
2022/05/11 01:18:40;;;;;;;4.93;2.20;;;15.70;99.90;;;;;;5132724;27;20206;-61
2022/05/11 01:21:08;;;;;;;3.50;2.47;;;15.70;99.90;;;;;;5133039;27;20681;-62
2022/05/11 01:23:42;;;;;;;5.83;2.53;;;15.80;99.90;;;;;;5133161;27;20264;-62
2022/05/11 01:26:10;;;;;;;3.80;2.50;;;15.80;99.90;;;;;;5132903;27;20218;-62
2022/05/11 01:28:42;;;;;;;4.07;2.53;;;15.80;99.90;;;;;;5132982;27;20256;-61
2022/05/11 01:31:11;;;;;;;5.10;2.40;;;15.80;99.90;;;;;;5132588;27;20227;-61
2022/05/11 01:33:42;;;;;;;4.00;2.10;;;15.80;99.90;;;;;;5132680;27;20207;-61
2022/05/11 01:36:16;;;;;;;5.43;2.30;;;15.90;99.90;;;;;;5132568;27;20271;-60
2022/05/11 01:38:46;;;;;;;4.63;2.40;;;15.90;99.90;;;;;;5132848;27;20206;-62
2022/05/11 01:41:19;;;;;;;4.30;2.03;;;15.90;99.90;;;;;;5132584;27;20639;-61
2022/05/11 01:43:46;;;;;;;5.80;2.50;;;15.90;99.90;;;;;;5132568;27;20611;-61
2022/05/11 01:46:14;;;;;;;3.83;2.40;;;15.90;99.90;;;;;;5132113;27;20761;-61
2022/05/11 01:48:41;;;;;;;4.20;2.47;;;15.90;99.90;;;;;;5132778;27;20207;-62
2022/05/11 01:51:07;;;;;;;3.97;2.70;;;15.90;99.90;;;;;;5132179;27;20222;-61
2022/05/11 01:53:34;;;;;;;3.90;2.43;;;15.90;99.90;;;;;;5131809;27;20293;-61
2022/05/11 01:56:01;;;;;;;3.67;2.53;;;16.00;99.90;;;;;;5132035;27;20206;-62
2022/05/11 01:58:29;;;;;;;5.27;2.23;;;16.00;99.90;;;;;;5132110;27;20203;-61
2022/05/11 02:00:56;;;;;;;3.10;2.23;;;15.90;99.90;;;;;;5132762;27;20280;-61
2022/05/11 02:03:23;;;;;;;4.17;2.17;;;15.90;99.90;;;;;;5132985;27;20252;-61
2022/05/11 02:08:36;;;;;;;3.83;2.50;;;15.90;99.90;;;;;;5132235;27;20264;-62
2022/05/11 02:11:03;;;;;;;10.80;2.60;;;15.90;99.90;;;;;;5132022;27;20716;-62
2022/05/11 02:13:32;;;;;;;4.50;2.50;;;15.80;99.90;;;;;;5132413;27;20248;-62
2022/05/11 02:15:59;;;;;;;2.93;2.30;;;15.80;99.50;;;;;;5132024;27;20730;-62
2022/05/11 02:18:26;;;;;;;5.30;2.17;;;15.80;99.70;;;;;;5132237;27;20243;-62
2022/05/11 02:20:52;;;;;;;3.37;2.40;;;15.80;99.40;;;;;;5132442;27;20716;-62
2022/05/11 02:23:21;;;;;;;4.07;2.27;;;15.80;99.40;;;;;;5131831;27;20611;-61
2022/05/11 02:25:49;;;;;;;4.47;2.37;;;15.80;98.70;;;;;;5132459;27;20560;-62
2022/05/11 02:28:17;;;;;;;5.20;2.40;;;15.80;99.10;;;;;;5131616;27;20199;-61
2022/05/11 02:30:46;;;;;;;6.30;2.57;;;15.80;98.90;;;;;;5132314;27;20223;-62
2022/05/11 02:33:14;;;;;;;3.40;2.30;;;15.70;99.00;;;;;;5132185;27;20215;-62
2022/05/11 02:35:42;;;;;;;3.33;2.40;;;15.70;98.90;;;;;;5134192;27;20247;-62
2022/05/11 02:38:11;;;;;;;3.80;2.27;;;15.70;99.90;;;;;;5135250;27;20210;-61
2022/05/11 02:40:40;;;;;;;3.43;2.40;;;15.70;99.80;;;;;;5135292;27;20283;-62
2022/05/11 02:43:08;;;;;;;4.90;2.87;;;15.60;99.60;;;;;;5136092;27;20206;-61
2022/05/11 02:45:37;;;;;;;4.20;2.30;;;15.60;99.30;;;;;;5135732;27;20206;-62
2022/05/11 02:48:06;;;;;;;3.50;2.53;;;15.60;99.70;;;;;;5135467;27;20233;-61
2022/05/11 02:50:35;;;;;;;4.47;2.60;;;15.50;99.90;;;;;;5135110;27;20307;-61
2022/05/11 02:53:02;;;;;;;6.43;2.37;;;15.50;99.90;;;;;;5135802;27;20198;-61
2022/05/11 02:55:30;;;;;;;4.80;2.30;;;15.50;99.90;;;;;;5135481;27;20203;-61
2022/05/11 02:57:56;;;;;;;4.10;2.37;;;15.50;99.90;;;;;;5135213;27;20248;-62
2022/05/11 03:00:23;;;;;;;3.43;2.60;;;15.50;99.90;;;;;;5135085;27;20227;-62
2022/05/11 03:02:50;;;;;;;5.50;2.67;;;15.50;99.90;;;;;;5135254;27;20214;-61
2022/05/11 03:05:18;;;;;;;5.67;2.30;;;15.50;99.90;;;;;;5135432;27;20207;-61
2022/05/11 03:07:44;;;;;;;3.80;2.20;;;15.40;99.90;;;;;;5134953;27;20649;-61
2022/05/11 03:10:11;;;;;;;5.33;2.50;;;15.40;99.90;;;;;;5135266;27;20737;-61
2022/05/11 03:12:39;;;;;;;3.53;2.40;;;15.40;99.90;;;;;;5135226;27;20222;-61
2022/05/11 03:15:08;;;;;;;5.80;3.17;;;15.50;99.90;;;;;;5135626;27;20283;-61
2022/05/11 03:17:35;;;;;;;4.03;2.43;;;15.50;99.90;;;;;;5134222;27;20203;-61
2022/05/11 03:20:05;;;;;;;3.33;2.47;;;15.50;99.90;;;;;;5135126;27;20791;-61
2022/05/11 03:22:33;;;;;;;3.20;2.60;;;15.50;99.90;;;;;;5135271;27;20244;-61
2022/05/11 03:25:00;;;;;;;5.23;2.77;;;15.50;99.90;;;;;;5135112;27;20199;-61
2022/05/11 03:27:26;;;;;;;5.23;2.30;;;15.50;99.90;;;;;;5134292;27;20326;-62
2022/05/11 03:29:54;;;;;;;7.37;2.60;;;15.50;99.90;;;;;;5134021;27;20199;-61
2022/05/11 03:35:08;;;;;;;3.30;2.50;;;15.40;99.90;;;;;;5134695;27;20205;-61
2022/05/11 03:37:37;;;;;;;3.43;2.23;;;15.30;99.90;;;;;;5134021;27;20207;-61
2022/05/11 03:40:05;;;;;;;3.20;2.33;;;15.30;99.90;;;;;;5134383;27;20724;-62
2022/05/11 03:42:33;;;;;;;4.03;2.87;;;15.30;99.90;;;;;;5134250;27;20575;-61
2022/05/11 03:45:08;;;;;;;4.57;2.27;;;15.30;99.90;;;;;;5134632;27;20206;-61
2022/05/11 03:47:35;;;;;;;4.57;2.57;;;15.30;99.90;;;;;;5134192;27;20233;-62
2022/05/11 03:50:02;;;;;;;2.70;2.07;;;15.40;99.90;;;;;;5133262;27;20696;-62
2022/05/11 03:52:28;;;;;;;3.60;2.90;;;15.40;99.90;;;;;;5134485;27;20203;-62
2022/05/11 03:54:56;;;;;;;3.70;2.67;;;15.40;99.90;;;;;;5134287;27;20274;-61
2022/05/11 03:57:23;;;;;;;4.20;2.50;;;15.40;99.90;;;;;;5134275;27;20256;-61
2022/05/11 03:59:50;;;;;;;3.80;2.40;;;15.40;99.90;;;;;;5134289;27;20210;-62
2022/05/11 04:02:16;;;;;;;5.17;3.07;;;15.40;99.90;;;;;;5134149;27;20724;-62
2022/05/11 04:04:43;;;;;;;4.27;2.70;;;15.50;99.90;;;;;;5134062;27;20206;-62
2022/05/11 04:07:10;;;;;;;7.27;3.33;;;15.50;99.90;;;;;;5133760;27;20288;-62
2022/05/11 04:09:37;;;;;;;6.60;3.33;;;15.50;99.90;;;;;;5133515;27;20210;-62
2022/05/11 04:12:06;;;;;;;3.67;2.20;;;15.50;99.90;;;;;;5133705;27;20230;-61
2022/05/11 04:14:33;;;;;;;6.50;2.53;;;15.50;99.90;;;;;;5134030;27;20265;-62
2022/05/11 04:17:00;;;;;;;3.77;2.40;;;15.60;99.90;;;;;;5133797;27;20206;-62
2022/05/11 04:19:27;;;;;;;4.30;2.40;;;15.60;99.90;;;;;;5133629;27;20206;-62
2022/05/11 04:21:54;;;;;;;4.57;2.30;;;15.60;99.90;;;;;;5133504;27;20222;-61
2022/05/11 04:24:20;;;;;;;3.23;2.40;;;15.60;99.90;;;;;;5133912;27;20229;-61
2022/05/11 04:26:48;;;;;;;4.37;2.40;;;15.60;99.90;;;;;;5133377;27;20693;-62
2022/05/11 04:29:17;;;;;;;4.53;2.67;;;15.60;99.90;;;;;;5133594;27;20209;-62
2022/05/11 04:31:44;;;;;;;2.30;2.10;;;15.70;99.90;;;;;;5133793;27;20227;-62
2022/05/11 04:34:11;;;;;;;3.67;2.30;;;15.70;99.90;;;;;;5133534;27;20210;-61
2022/05/11 04:36:38;;;;;;;3.80;2.60;;;15.80;99.90;;;;;;5133167;27;20203;-62
2022/05/11 04:39:05;;;;;;;3.87;2.40;;;15.80;99.90;;;;;;5133387;27;20198;-62
2022/05/11 04:41:32;;;;;;;5.13;3.00;;;15.80;99.90;;;;;;5133665;27;20785;-62
2022/05/11 04:43:58;;;;;;;3.37;2.13;;;15.80;99.90;;;;;;5133296;27;20746;-62
2022/05/11 04:46:26;;;;;;;3.70;2.60;;;15.80;99.90;;;;;;5133622;27;20203;-62
2022/05/11 04:49:16;;;;;;;6.57;2.80;;;15.80;99.90;;;;;;5133385;27;20275;-62
2022/05/11 04:51:40;;;;;;;5.70;2.73;;;15.80;99.90;;;;;;5133183;27;20223;-62
2022/05/11 04:54:07;;;;;;;3.47;2.37;;;15.80;99.90;;;;;;5133301;27;20206;-61
2022/05/11 04:56:33;;;;;;;6.40;2.87;;;15.80;99.90;;;;;;5131341;27;20248;-64
2022/05/11 04:59:00;;;;;;;4.87;2.47;;;15.80;99.90;;;;;;5131617;27;20191;-63
2022/05/11 05:01:28;;;;;;;3.53;2.47;;;15.70;99.90;;;;;;5132576;27;20272;-63
2022/05/11 05:03:55;;;;;;;4.23;2.47;;;15.70;99.90;;;;;;5132899;27;20198;-62
2022/05/11 05:06:21;;;;;;;4.70;2.80;;;15.80;99.90;;;;;;5132379;27;20210;-63
2022/05/11 05:08:48;;;;;;;7.10;2.80;;;15.80;99.90;;;;;;5132984;27;20248;-64
2022/05/11 05:11:15;;;;;;;4.53;2.53;;;15.90;99.90;;;;;;5132531;27;20238;-62
2022/05/11 05:13:41;;;;;;;4.00;2.60;;;16.00;99.90;;;;;;5132817;27;20207;-62
2022/05/11 05:16:08;;;;;;;6.60;2.63;;;16.00;99.90;;;;;;5132380;27;20203;-63
2022/05/11 05:18:36;;;;;;;3.27;2.60;;;16.10;99.90;;;;;;5131678;27;20840;-63
2022/05/11 05:21:03;;;;;;;3.23;2.53;;;16.10;99.90;;;;;;5132978;27;20275;-63
2022/05/11 05:23:29;;;;;;;4.23;2.57;;;16.10;99.90;;;;;;5132324;27;20210;-63
2022/05/11 05:25:56;;;;;;;4.57;2.83;;;16.20;99.90;;;;;;5132235;27;20677;-63
2022/05/11 05:31:11;;;;;;;4.17;2.40;;;16.30;99.90;;;;;;5132886;28;20267;-63
2022/05/11 05:33:40;;;;;;;4.27;2.83;;;16.40;99.90;;;;;;5132052;27;20207;-62
2022/05/11 05:36:07;;;;;;;5.10;2.70;;;16.60;99.90;;;;;;5132199;27;20411;-61
2022/05/11 05:38:36;;;;;;;4.87;2.77;;;16.60;99.90;;;;;;5123940;27;20214;-61
2022/05/11 05:41:03;;;;;;;3.87;2.70;;;16.70;99.90;;;;;;5131216;27;20620;-63
2022/05/11 05:43:30;;;;;;;6.40;2.80;;;16.80;99.90;;;;;;5131895;27;20908;-62
2022/05/11 05:45:57;;;;;;;7.23;3.00;;;16.80;99.90;;;;;;5131861;27;20207;-62
2022/05/11 05:48:24;;;;;;;3.87;2.87;;;16.90;99.90;;;;;;5132338;27;20763;-66
2022/05/11 05:50:52;;;;;;;4.27;2.80;;;17.00;99.90;;;;;;5131188;27;20630;-66
2022/05/11 05:53:21;;;;;;;6.77;3.00;;;17.10;99.90;;;;;;5132232;27;20255;-63
2022/05/11 05:55:48;;;;;;;5.40;3.07;;;17.20;99.90;;;;;;5132286;27;20595;-63
2022/05/11 05:58:16;;;;;;;5.43;3.30;;;17.20;99.90;;;;;;5130857;27;20730;-64
2022/05/11 06:00:43;;;;;;;9.50;3.27;;;17.20;99.90;;;;;;5131651;27;20226;-62
2022/05/11 06:03:11;;;;;;;6.70;3.40;;;17.20;99.90;;;;;;5131679;27;20243;-62
2022/05/11 06:05:39;;;;;;;5.20;3.27;;;17.20;99.90;;;;;;5131785;27;20601;-63
2022/05/11 06:08:08;;;;;;;9.57;3.87;;;17.20;99.90;;;;;;5131023;27;20227;-64
2022/05/11 06:10:39;;;;;;;4.43;3.83;;;17.20;99.90;;;;;;5134955;27;20276;-63
2022/05/11 06:13:06;;;;;;;6.03;4.20;;;17.20;99.90;;;;;;5136089;27;20203;-62
2022/05/11 06:15:33;;;;;;;10.20;4.70;;;17.30;99.90;;;;;;5135510;27;20665;-62
2022/05/11 06:18:00;;;;;;;7.37;4.27;;;17.40;99.90;;;;;;5135339;27;20207;-63
2022/05/11 06:20:27;;;;;;;5.47;3.90;;;17.50;99.90;;;;;;5135206;27;20231;-63
2022/05/11 06:22:53;;;;;;;7.00;4.20;;;17.60;99.90;;;;;;5135554;27;20576;-64
2022/05/11 06:25:23;;;;;;;5.30;4.13;;;17.70;99.90;;;;;;5134990;27;20211;-63
2022/05/11 06:27:49;;;;;;;6.63;4.80;;;17.80;99.90;;;;;;5134371;27;20227;-62
2022/05/11 06:30:17;;;;;;;8.80;5.13;;;17.80;99.90;;;;;;5135457;27;20207;-63
2022/05/11 06:32:44;;;;;;;6.80;5.13;;;17.90;99.90;;;;;;5135238;27;20202;-63
2022/05/11 06:35:11;;;;;;;7.07;5.27;;;17.90;99.90;;;;;;5135212;27;20203;-63
2022/05/11 06:37:41;;;;;;;9.50;5.67;;;18.00;99.90;;;;;;5132191;27;20199;-62
2022/05/11 06:40:08;;;;;;;7.27;5.07;;;18.00;99.90;;;;;;5134829;27;20217;-61
2022/05/11 06:42:36;;;;;;;7.83;5.83;;;18.10;99.90;;;;;;5134767;27;20199;-62
2022/05/11 06:45:05;;;;;;;6.30;5.10;;;18.20;99.90;;;;;;5135198;27;20606;-62
2022/05/11 06:47:32;;;;;;;9.43;5.73;;;18.30;99.90;;;;;;5134561;27;20242;-63
2022/05/11 06:49:58;;;;;;;12.33;5.97;;;18.40;99.90;;;;;;5134336;27;20218;-63
2022/05/11 06:52:25;;;;;;;9.53;5.80;;;18.60;99.90;;;;;;5134462;27;20252;-62
2022/05/11 07:00:24;;;;;;;8.17;5.70;;;19.00;99.90;;;;;;5133795;27;20221;-63
2022/05/11 07:02:51;;;;;;;9.10;5.73;;;19.20;99.90;;;;;;5135043;27;20211;-63
2022/05/11 07:05:18;;;;;;;8.00;5.50;;;19.30;99.90;;;;;;5134466;27;20618;-61
2022/05/11 07:07:44;;;;;;;12.33;6.57;;;19.40;99.90;;;;;;5134332;27;20229;-61
2022/05/11 07:10:11;;;;;;;11.77;7.37;;;19.50;99.90;;;;;;5134477;27;20207;-62
2022/05/11 07:12:45;;;;;;;12.33;7.30;;;19.70;99.90;;;;;;5134413;27;20301;-61
2022/05/11 07:15:14;;;;;;;8.90;6.37;;;19.70;99.90;;;;;;5134442;27;20631;-61
2022/05/11 07:17:43;;;;;;;11.63;7.10;;;19.70;99.90;;;;;;5133931;27;20286;-62
2022/05/11 07:20:12;;;;;;;10.60;7.57;;;19.80;99.90;;;;;;5132896;27;20207;-63
2022/05/11 07:22:40;;;;;;;9.87;6.90;;;19.80;99.90;;;;;;5134256;27;20287;-64
2022/05/11 07:25:08;;;;;;;12.80;7.40;;;20.00;99.90;;;;;;5133837;27;20564;-63
2022/05/11 07:27:34;;;;;;;9.83;6.57;;;20.20;99.90;;;;;;5133945;27;20207;-62
2022/05/11 07:30:04;;;;;;;13.80;7.13;;;20.30;99.90;;;;;;5133656;27;20755;-64
2022/05/11 07:32:30;;;;;;;13.60;6.40;;;20.50;99.90;;;;;;5134582;27;20294;-63
2022/05/11 07:34:57;;;;;;;11.43;7.17;;;20.50;99.90;;;;;;5134237;27;20215;-63
2022/05/11 07:37:24;;;;;;;11.83;6.90;;;20.50;99.90;;;;;;5134365;27;20680;-64
2022/05/11 07:39:51;;;;;;;8.30;5.90;;;20.60;99.90;;;;;;5134041;27;20203;-60
2022/05/11 07:42:19;;;;;;;11.30;6.70;;;20.70;99.90;;;;;;5134652;27;20659;-61
2022/05/11 07:44:45;;;;;;;13.90;7.37;;;20.80;99.90;;;;;;5134890;27;20203;-64
2022/05/11 07:47:13;;;;;;;10.70;7.27;;;20.90;99.90;;;;;;5133722;27;20559;-62
2022/05/11 07:49:40;;;;;;;11.53;7.00;;;20.50;99.90;;;;;;5133770;27;20708;-63
2022/05/11 07:52:08;;;;;;;9.20;6.17;;;20.70;99.90;;;;;;5133258;27;20226;-62
2022/05/11 07:54:35;;;;;;;10.43;5.97;;;20.90;99.90;;;;;;5133804;27;20203;-62
2022/05/11 07:59:57;;;;;;;11.70;5.40;;;20.90;99.90;;;;;;5074777;27;20207;-63
2022/05/11 08:02:27;;;;;;;6.77;5.17;;;21.00;99.90;;;;;;5133433;27;20233;-62
2022/05/11 08:04:57;;;;;;;6.83;4.87;;;21.10;99.90;;;;;;5133170;27;20294;-62
2022/05/11 08:07:26;;;;;;;8.97;5.20;;;21.00;99.90;;;;;;5133447;27;20211;-62
2022/05/11 08:09:53;;;;;;;8.17;5.10;;;21.10;99.90;;;;;;5133104;27;20321;-61
2022/05/11 08:12:20;;;;;;;8.00;4.73;;;21.00;99.90;;;;;;5123465;27;20238;-64
2022/05/11 08:14:47;;;;;;;9.30;5.13;;;21.20;99.90;;;;;;5112285;28;20203;-64
2022/05/11 08:17:13;;;;;;;8.17;4.63;;;21.00;99.90;;;;;;5117094;28;20210;-64
2022/05/11 08:19:43;;;;;;;8.67;3.97;;;21.00;99.90;;;;;;5129552;27;20604;-64
2022/05/11 08:22:10;;;;;;;7.20;4.57;;;21.10;99.90;;;;;;5133422;27;20227;-65
2022/05/11 08:24:37;;;;;;;7.97;3.90;;;21.30;99.90;;;;;;5134071;27;20202;-66
2022/05/11 08:27:05;;;;;;;4.50;3.27;;;21.40;99.90;;;;;;5132852;27;20627;-66
2022/05/11 08:35:05;;;;;;;4.83;3.63;;;21.50;99.90;;;;;;5133078;27;20202;-63
2022/05/11 08:37:32;;;;;;;4.53;2.77;;;21.50;99.90;;;;;;5132540;27;20207;-63
2022/05/11 08:39:59;;;;;;;5.57;2.40;;;21.60;99.90;;;;;;5132819;27;20203;-67
2022/05/11 08:42:30;;;;;;;5.23;2.50;;;21.70;99.90;;;;;;5132231;27;20313;-66
2022/05/11 08:44:57;;;;;;;3.50;2.07;;;21.80;99.90;;;;;;5132513;27;20214;-63
2022/05/11 08:47:33;;;;;;;3.40;2.63;;;21.90;99.90;;;;;;5132550;27;20214;-64
2022/05/11 08:50:09;;;;;;;3.07;2.10;;;21.90;99.90;;;;;;5132805;27;20217;-64
2022/05/11 08:52:43;;;;;;;3.23;2.47;;;22.00;99.90;;;;;;5132864;27;20227;-64
2022/05/11 08:55:13;;;;;;;5.57;2.60;;;22.10;99.90;;;;;;5132046;27;20247;-63
2022/05/11 08:57:41;;;;;;;4.77;2.40;;;22.20;99.90;;;;;;5132325;27;20198;-62
2022/05/11 09:00:12;;;;;;;5.90;2.47;;;22.30;99.90;;;;;;5132055;27;20198;-64
2022/05/11 09:02:47;;;;;;;4.50;2.77;;;22.40;99.90;;;;;;5132813;27;20257;-63
2022/05/11 09:05:16;;;;;;;4.47;2.67;;;22.10;99.90;;;;;;5131912;27;20556;-63
2022/05/11 09:07:47;;;;;;;6.17;2.93;;;22.00;99.90;;;;;;5132595;27;20202;-63
2022/05/11 09:10:21;;;;;;;4.57;2.53;;;22.20;99.90;;;;;;5131859;27;20275;-64
2022/05/11 09:12:53;;;;;;;7.57;4.03;;;22.10;99.90;;;;;;5132375;27;20221;-64
2022/05/11 09:15:21;;;;;;;9.03;3.53;;;22.20;99.90;;;;;;5132193;27;20293;-65
2022/05/11 09:17:48;;;;;;;5.80;2.97;;;22.20;99.90;;;;;;5131620;27;20210;-65
2022/05/11 09:20:18;;;;;;;4.97;2.93;;;22.20;99.90;;;;;;5132190;27;20206;-65
2022/05/11 09:23:02;;;;;;;4.20;2.77;;;22.30;99.90;;;;;;5132241;27;20586;-64
2022/05/11 09:25:30;;;;;;;3.90;2.63;;;22.50;99.90;;;;;;5132080;27;20202;-62
2022/05/11 09:28:14;;;;;;;5.83;2.87;;;22.50;99.90;;;;;;5131485;27;20293;-63
2022/05/11 09:30:55;;;;;;;5.73;2.70;;;22.50;99.90;;;;;;5132026;27;20223;-65
2022/05/11 09:33:25;;;;;;;7.37;3.00;;;22.70;99.90;;;;;;5131979;27;20210;-63
2022/05/11 09:35:53;;;;;;;7.60;3.00;;;22.60;99.90;;;;;;5131738;27;20294;-62
2022/05/11 09:38:37;;;;;;;4.53;3.37;;;22.40;99.90;;;;;;5132127;27;20213;-64
2022/05/11 09:41:12;;;;;;;8.10;4.73;;;22.60;99.90;;;;;;5130134;27;20227;-64
2022/05/11 09:43:42;;;;;;;8.07;4.53;;;22.60;99.90;;;;;;5133090;27;20232;-64
2022/05/11 09:46:28;;;;;;;6.67;2.87;;;22.60;99.90;;;;;;5134891;27;20633;-62
2022/05/11 09:49:01;;;;;;;7.17;2.67;;;22.70;99.90;;;;;;5136323;27;20263;-62
2022/05/11 09:51:35;;;;;;;7.83;4.30;;;22.50;99.90;;;;;;5135596;27;20234;-62
2022/05/11 09:54:16;;;;;;;7.07;3.90;;;22.50;99.90;;;;;;5136161;27;20733;-63
2022/05/11 09:56:52;;;;;;;3.80;2.23;;;22.60;99.90;;;;;;5135717;27;20209;-63
2022/05/11 09:59:22;;;;;;;8.90;3.13;;;22.70;99.90;;;;;;5136010;27;20233;-62
2022/05/11 10:01:52;;;;;;;7.20;2.90;;;22.90;99.90;;;;;;5135978;27;20300;-62
2022/05/11 10:04:29;;;;;;;4.67;2.90;;;22.90;99.90;;;;;;5136133;27;20199;-62
2022/05/11 10:06:58;;;;;;;4.13;2.77;;;22.90;99.90;;;;;;5135666;27;20619;-65
2022/05/11 10:09:30;;;;;;;8.03;3.00;;;23.10;99.90;;;;;;5135975;27;20219;-64
2022/05/11 10:11:59;;;;;;;5.23;3.23;;;23.00;99.90;;;;;;5135526;27;20241;-64
2022/05/11 10:23:03;;;;;;;3.30;2.87;;;23.50;99.90;;;;;;5135714;27;20239;-64
2022/05/11 10:25:33;;;;;;;7.57;3.63;;;23.50;99.90;;;;;;5135204;27;20272;-65
2022/05/11 10:28:08;;;;;;;7.47;3.03;;;23.60;99.90;;;;;;5135408;27;20229;-63
2022/05/11 10:30:44;;;;;;;6.13;3.23;;;23.60;99.90;;;;;;5135640;27;20262;-64
2022/05/11 10:33:28;;;;;;;6.50;3.17;;;23.70;99.90;;;;;;5135434;27;20249;-62
2022/05/11 10:36:01;;;;;;;5.07;3.27;;;23.70;99.90;;;;;;5134780;27;20230;-60
2022/05/11 10:38:51;;;;;;;5.73;3.33;;;23.80;99.90;;;;;;5135458;27;20260;-60
2022/05/11 10:41:27;;;;;;;5.23;3.00;;;23.70;99.90;;;;;;5134612;27;20226;-61
2022/05/11 10:44:02;;;;;;;4.90;2.80;;;23.70;99.90;;;;;;5135629;27;20267;-62
2022/05/11 10:46:36;;;;;;;5.73;2.90;;;23.90;99.90;;;;;;5134355;27;20202;-63
2022/05/11 10:49:26;;;;;;;3.77;3.00;;;23.90;99.90;;;;;;5134943;27;20299;-62
2022/05/11 10:52:06;;;;;;;7.33;3.07;;;23.90;99.90;;;;;;5134909;27;20223;-62
2022/05/11 10:54:45;;;;;;;5.53;3.00;;;23.70;99.90;;;;;;5134665;27;20213;-63
2022/05/11 10:57:21;;;;;;;5.50;3.13;;;23.70;99.90;;;;;;5133838;27;20213;-64
2022/05/11 11:00:00;;;;;;;6.40;3.47;;;23.60;99.90;;;;;;5134548;27;20198;-64
2022/05/11 11:02:56;;;;;;;5.03;3.13;;;23.70;99.90;;;;;;5135095;27;20291;-63
2022/05/11 11:05:29;;;;;;;6.43;3.10;;;23.70;99.90;;;;;;5107576;27;20297;-62
2022/05/11 11:08:08;;;;;;;4.00;3.20;;;24.00;99.90;;;;;;5134449;27;20203;-63
2022/05/11 11:10:42;;;;;;;3.90;2.60;;;24.10;99.90;;;;;;5134437;27;20234;-63
2022/05/11 11:13:34;;;;;;;7.90;3.20;;;24.30;99.90;;;;;;5135138;27;20206;-63
2022/05/11 11:16:03;;;;;;;4.97;3.00;;;24.20;99.90;;;;;;5131225;27;20202;-63
2022/05/11 11:18:33;;;;;;;7.23;2.60;;;24.00;99.90;;;;;;5134708;27;20211;-62
2022/05/11 11:21:02;;;;;;;3.47;2.93;;;24.20;99.90;;;;;;5134056;27;20313;-62
2022/05/11 11:23:33;;;;;;;3.63;2.60;;;24.10;99.90;;;;;;5134755;27;20259;-63
2022/05/11 11:26:03;;;;;;;3.63;2.90;;;24.20;99.90;;;;;;5133902;27;20210;-62
2022/05/11 11:28:33;;;;;;;5.97;2.70;;;24.20;99.90;;;;;;5134346;27;20202;-62
2022/05/11 11:31:19;;;;;;;6.03;2.50;;;24.20;99.90;;;;;;5134405;27;20231;-62
2022/05/11 11:34:22;;;;;;;5.37;2.70;;;24.40;99.90;;;;;;5133867;27;20279;-59
2022/05/11 11:36:49;;;;;;;5.87;2.77;;;24.40;99.90;;;;;;5131740;27;20670;-64
2022/05/11 11:39:52;;;;;;;5.60;2.53;;;24.60;99.90;;;;;;5133791;27;20252;-62
2022/05/11 11:42:36;;;;;;;4.87;2.40;;;24.60;99.90;;;;;;5134125;27;20716;-62
2022/05/11 11:45:05;;;;;;;6.53;2.50;;;24.80;99.90;;;;;;5133354;27;20305;-62
2022/05/11 11:47:43;;;;;;;3.80;2.53;;;24.70;99.90;;;;;;5133953;27;20206;-62
2022/05/11 11:50:44;;;;;;;4.10;2.57;;;24.60;99.90;;;;;;5133435;27;20742;-62
2022/05/11 11:53:20;;;;;;;3.73;2.60;;;24.70;99.90;;;;;;5134008;27;20293;-60
2022/05/11 11:55:47;;;;;;;5.60;2.90;;;24.80;99.90;;;;;;5133172;27;20255;-61
2022/05/11 11:58:26;;;;;;;5.30;2.50;;;24.70;99.90;;;;;;5133567;27;20218;-61
2022/05/11 12:01:19;;;;;;;4.67;2.67;;;24.60;99.90;;;;;;5133656;27;20215;-60
2022/05/11 12:03:57;;;;;;;5.80;2.40;;;24.60;99.90;;;;;;5130791;27;20233;-62
2022/05/11 12:15:02;;;;;;;5.27;2.40;;;25.20;99.90;;;;;;5133377;27;20202;-61
2022/05/11 12:17:33;;;;;;;4.43;2.63;;;25.40;99.90;;;;;;5133102;27;20210;-61
2022/05/11 12:20:05;;;;;;;5.50;2.57;;;25.50;99.90;;;;;;5133545;27;20210;-61
2022/05/11 12:22:33;;;;;;;4.30;2.30;;;25.40;99.90;;;;;;5133532;27;20239;-61
2022/05/11 12:25:02;;;;;;;4.10;2.20;;;25.30;99.90;;;;;;5133051;27;20211;-61
2022/05/11 12:27:31;;;;;;;4.20;2.30;;;25.10;99.90;;;;;;5132790;27;20199;-61
2022/05/11 12:30:02;;;;;;;4.90;2.43;;;25.20;99.90;;;;;;5132946;27;20223;-62
2022/05/11 12:32:31;;;;;;;4.17;2.33;;;25.20;99.90;;;;;;5133482;27;20223;-61
2022/05/11 12:35:07;;;;;;;4.93;2.30;;;25.30;99.90;;;;;;5132588;27;20572;-61
2022/05/11 12:37:37;;;;;;;5.93;2.60;;;25.40;99.90;;;;;;5132294;27;20745;-63
2022/05/11 12:40:07;;;;;;;3.73;2.40;;;25.30;99.90;;;;;;5131939;27;20251;-61
2022/05/11 12:42:39;;;;;;;5.30;2.70;;;25.30;99.90;;;;;;5133717;27;20260;-62
2022/05/11 12:45:11;;;;;;;5.67;2.27;;;25.40;99.90;;;;;;5133528;27;20199;-61
2022/05/11 12:47:43;;;;;;;4.33;2.40;;;25.30;99.90;;;;;;5133394;27;20252;-61
2022/05/11 12:50:16;;;;;;;5.00;2.50;;;25.50;99.90;;;;;;5133107;27;20222;-61
2022/05/11 12:52:43;;;;;;;3.90;2.13;;;25.40;99.90;;;;;;5132751;27;20225;-61
2022/05/11 12:55:09;;;;;;;5.23;2.40;;;25.40;99.90;;;;;;5133585;27;20206;-60
2022/05/11 12:57:39;;;;;;;3.87;2.30;;;25.40;99.90;;;;;;5132840;27;20206;-60
2022/05/11 13:00:20;;;;;;;7.23;2.57;;;25.50;99.90;;;;;;5133461;27;20198;-61
2022/05/11 13:02:49;;;;;;;6.73;2.60;;;25.60;99.90;;;;;;5133439;27;20240;-62
2022/05/11 13:05:18;;;;;;;5.67;2.63;;;25.70;99.90;;;;;;5132633;27;20259;-61
2022/05/11 13:07:49;;;;;;;4.97;2.73;;;25.50;99.90;;;;;;5132354;27;20249;-61
2022/05/11 13:10:19;;;;;;;3.83;2.27;;;25.60;99.90;;;;;;5132932;27;20250;-61
2022/05/11 13:12:50;;;;;;;6.00;2.30;;;25.70;99.90;;;;;;5132474;27;20214;-62
2022/05/11 13:15:33;;;;;;;3.97;2.80;;;25.70;99.90;;;;;;5132660;27;20203;-62
2022/05/11 13:18:00;;;;;;;6.47;2.87;;;25.60;99.90;;;;;;5132258;27;20203;-61
2022/05/11 13:20:29;;;;;;;10.37;2.70;;;25.70;99.90;;;;;;5132312;27;20268;-62
2022/05/11 13:22:59;;;;;;;5.83;2.33;;;25.80;99.90;;;;;;5132914;27;20280;-62
2022/05/11 13:25:45;;;;;;;5.27;2.30;;;26.00;99.90;;;;;;5132474;27;20207;-61
2022/05/11 13:28:13;;;;;;;5.60;2.47;;;26.20;99.90;;;;;;5132839;27;20301;-63
2022/05/11 13:30:44;;;;;;;3.83;2.17;;;26.30;99.90;;;;;;5132573;27;20283;-60
2022/05/11 13:33:34;;;;;;;6.70;2.83;;;26.20;99.90;;;;;;5132816;27;20211;-61
2022/05/11 13:36:17;;;;;;;11.20;2.80;;;26.10;99.90;;;;;;5131824;27;20202;-67
2022/05/11 13:38:53;;;;;;;5.30;2.90;;;26.00;99.90;;;;;;5126467;27;20206;-61
2022/05/11 13:41:24;;;;;;;5.37;2.50;;;26.00;99.90;;;;;;5131039;27;20743;-62
2022/05/11 13:43:54;;;;;;;5.50;2.60;;;26.10;99.90;;;;;;5132483;27;20262;-63